Nearby METAR Reports

 

KEDC - Austin Exec, Texas, USA
Distance from station: SW 16mi, 25km
Updated: Sat, 06-Jun-2020 5:55pm CDT
Partly cloudy
Partly cloudy
 Wind from NE
Wind: NE 6 mph , 9 km/h
Temperature: 93°F , 34°C
Heat Index: 96°F , 36°C
Dew Point: 66°F , 19°C
Humidity: 41%
Barometer: 29.81 inHg , 1009.5 hPa
Clouds: Partly cloudy
Visibility: 10 miles , 16 km
Cloud details: Partly cloudy 6000 ft
2020/06/06 22:55 KEDC 062255Z AUTO 05005KT 10SM SCT060 34/19 A2981 RMK AO2
KGTU - Georgetown, Texas, USA
Distance from station: WNW 17mi, 28km
Updated: Sat, 06-Jun-2020 5:56pm CDT
Partly cloudy
Partly cloudy
 Wind from E
Wind: E 5 mph , 7 km/h
Temperature: 93°F , 34°C
Heat Index: 96°F , 36°C
Dew Point: 66°F , 19°C
Humidity: 41%
Barometer: 29.83 inHg , 1010.2 hPa
Clouds: Partly cloudy
Visibility: 9 miles , 14 km
Cloud details: Few Clouds 6500 ft
Partly cloudy 8000 ft
2020/06/06 22:56 KGTU 062256Z 10004KT 9SM FEW065 SCT080 34/19 A2983 RMK AO2 SLP095 T03390194
 
KATT - Austin/Mabry, Texas, USA
Distance from station: SW 28mi, 45km
Updated: Sat, 06-Jun-2020 5:51pm CDT
Few Clouds
Few Clouds
 Wind from varies
Wind: varies 5 mph , 7 km/h
Temperature: 95°F , 35°C
Dew Point: 66°F , 19°C
Humidity: 39%
Barometer: 29.82 inHg , 1009.8 hPa
Clouds: Few Clouds
Visibility: 10 miles , 16 km
Cloud details: Few Clouds 6500 ft
2020/06/06 22:51 KATT 062251Z AUTO VRB04KT 10SM FEW065 35/19 A2982 RMK AO2 SLP082 T03500189 $
KAUS - Austin, Texas, USA
Distance from station: SSW 32mi, 51km
Updated: Sat, 06-Jun-2020 5:53pm CDT
Partly cloudy
Partly cloudy
 Wind from E
Wind: E 3 mph , 6 km/h
Temperature: 93°F , 34°C
Heat Index: 99°F , 37°C
Dew Point: 70°F , 21°C
Humidity: 47%
Barometer: 29.80 inHg , 1009.1 hPa
Clouds: Partly cloudy
Visibility: 10 miles , 16 km
Cloud details: Partly cloudy 5500 ft
2020/06/06 22:53 KAUS 062253Z 10003KT 10SM SCT055 34/21 A2980 RMK AO2 SLP077 T03440206
 
KRYW - Lago Vista, Texas, USA
Distance from station: W 33mi, 54km
Updated: Sat, 06-Jun-2020 5:55pm CDT
Partly cloudy
Partly cloudy
 Wind from ENE
Wind: ENE 6 mph , 9 km/h
Temperature: 91°F , 33°C
Heat Index: 94°F , 34°C
Dew Point: 66°F , 19°C
Humidity: 44%
Barometer: 29.85 inHg , 1010.8 hPa
Clouds: Partly cloudy
Visibility: 10 miles , 16 km
Cloud details: Partly cloudy 6000 ft
Partly cloudy 7500 ft
2020/06/06 22:55 KRYW 062255Z AUTO 06005KT 10SM SCT060 SCT075 33/19 A2985 RMK AO2 T03340194
KILE - Killeen Muni, Texas, USA
Distance from station: NNW 37mi, 59km
Updated: Sat, 06-Jun-2020 5:56pm CDT
Clear
Clear
 Wind from E
Wind: E 7 mph , 11 km/h
Temperature: 93°F , 34°C
Heat Index: 96°F , 36°C
Dew Point: 66°F , 19°C
Humidity: 41%
Barometer: 29.83 inHg , 1010.2 hPa
Clouds: Clear
Visibility: 10 miles , 16 km
2020/06/06 22:56 KILE 062256Z AUTO 10006KT 10SM CLR 34/19 A2983 RMK AO2 SLP087 T03440194
 
KTPL - Temple/Miller, Texas, USA
Distance from station: N 38mi, 61km
Updated: Sat, 06-Jun-2020 5:51pm CDT
Haze, Clear
Haze, Clear
 Wind from varies
Wind: varies 6 mph , 9 km/h
Temperature: 95°F , 35°C
Dew Point: 64°F , 18°C
Humidity: 36%
Barometer: 29.83 inHg , 1010.2 hPa
Summary: Haze
Clouds: Clear
Visibility: 5 miles , 8 km
2020/06/06 22:51 KTPL 062251Z AUTO VRB05KT 5SM HZ CLR 35/18 A2983 RMK AO2 SLP088 T03500183
KGYB - Giddings-Lee, Texas, USA
Distance from station: SE 39mi, 62km
Updated: Sat, 06-Jun-2020 5:55pm CDT
Clear
Clear
 Wind from calm
Wind: Calm
Temperature: 95°F , 35°C
Heat Index: 101°F , 38°C
Dew Point: 70°F , 21°C
Humidity: 44%
Barometer: 29.80 inHg , 1009.1 hPa
Clouds: Clear
Visibility: 10 miles , 16 km
2020/06/06 22:55 KGYB 062255Z AUTO 00000KT 10SM CLR 35/21 A2980 RMK AO2 T03460206
 
KGRK - Gray/Ft Hood, Texas, USA
Distance from station: NW 42mi, 67km
Updated: Sat, 06-Jun-2020 5:58pm CDT
Clear
Clear
 Wind from ENE
Wind: ENE 9 mph , 15 km/h
Temperature: 93°F , 34°C
Dew Point: 63°F , 17°C
Humidity: 36%
Barometer: 29.82 inHg , 1009.8 hPa
Clouds: Clear
Visibility: 10 miles , 16 km
2020/06/06 22:58 KGRK 062258Z AUTO 06008KT 10SM CLR 34/17 A2982 RMK AO2 SLP086 T03390173
KHLR - Ft Hood/Killeen, Texas, USA
Distance from station: NNW 42mi, 67km
Updated: Sat, 06-Jun-2020 5:58pm CDT
Clear
Clear
 Wind from E
Wind: E 7 mph , 11 km/h
Temperature: 93°F , 34°C
Dew Point: 64°F , 18°C
Humidity: 39%
Barometer: 29.83 inHg , 1010.2 hPa
Clouds: Clear
Visibility: 10 miles , 16 km
2020/06/06 22:58 KHLR 062258Z AUTO 08006KT 10SM CLR 34/18 A2983 RMK AO2 SLP088 T03420177
 
KRWV - Caldwell, Texas, USA
Distance from station: E 43mi, 69km
Updated: Sat, 06-Jun-2020 5:55pm CDT
Partly cloudy
Partly cloudy
 Wind from N
Wind: N 7 mph , 11 km/h
Temperature: 93°F , 34°C
Heat Index: 99°F , 37°C
Dew Point: 70°F , 21°C
Humidity: 47%
Barometer: 29.79 inHg , 1008.8 hPa
Clouds: Partly cloudy
Visibility: 10 miles , 16 km
Cloud details: Partly cloudy 7500 ft
Partly cloudy 10000 ft
2020/06/06 22:55 KRWV 062255Z AUTO 01006KT 10SM SCT075 SCT100 34/21 A2979 RMK AO2 T03420208
KBMQ - Burnet, Texas, USA
Distance from station: WNW 50mi, 80km
Updated: Sat, 06-Jun-2020 5:53pm CDT
Clear
Clear
 Wind from varies
Wind: varies 3 mph , 6 km/h
Temperature: 91°F , 33°C
Dew Point: 61°F , 16°C
Humidity: 36%
Barometer: 29.87 inHg , 1011.5 hPa
Clouds: Clear
Visibility: 10 miles , 16 km
2020/06/06 22:53 KBMQ 062253Z AUTO VRB03KT 10SM CLR 33/16 A2987 RMK AO2 SLP093 T03330161